Time;durP1;ratioP1;P1;durP2;ratioP2;P2;SDS_P1;SDS_P2;PMS_P1;PMS_P2;Temp;Humidity;BMP_temperature;BMP_pressure;BME280_temperature;BME280_humidity;BME280_pressure;Samples;Min_cycle;Max_cycle;Signal;HPM_P1;HPM_P2
2022/10/20 00:01:24;;;;;;;10.32;9.05;;;7.80;99.90;;;;;;5090283;28;20190;-77
2022/10/20 00:03:50;;;;;;;10.40;9.18;;;7.80;99.90;;;;;;5089835;28;20186;-77
2022/10/20 00:06:21;;;;;;;8.95;8.10;;;7.80;99.90;;;;;;5086829;28;20587;-77
2022/10/20 00:08:47;;;;;;;9.68;8.88;;;7.80;99.90;;;;;;5079426;28;20203;-78
2022/10/20 00:11:16;;;;;;;10.63;9.57;;;7.80;99.90;;;;;;5094918;28;20185;-77
2022/10/20 00:13:44;;;;;;;11.55;8.88;;;7.80;99.90;;;;;;5079987;28;20202;-77
2022/10/20 00:16:09;;;;;;;10.52;9.52;;;7.80;99.90;;;;;;5083386;28;20266;-77
2022/10/20 00:18:35;;;;;;;11.30;9.25;;;7.80;99.90;;;;;;5084876;28;20258;-77
2022/10/20 00:21:06;;;;;;;12.02;8.38;;;7.80;99.90;;;;;;5079340;28;20193;-77
2022/10/20 00:23:32;;;;;;;10.32;8.60;;;7.80;99.90;;;;;;5087110;28;20179;-77
2022/10/20 00:26:09;;;;;;;9.15;8.25;;;7.80;99.90;;;;;;5080743;28;20617;-77
2022/10/20 00:28:35;;;;;;;10.30;9.02;;;7.80;99.90;;;;;;5076763;28;20197;-78
2022/10/20 00:31:01;;;;;;;10.60;9.05;;;7.70;99.90;;;;;;5086514;28;20608;-77
2022/10/20 00:33:26;;;;;;;10.30;8.70;;;7.70;99.90;;;;;;5092049;28;20190;-77
2022/10/20 00:35:52;;;;;;;9.10;8.27;;;7.60;99.90;;;;;;5080599;28;20215;-76
2022/10/20 00:38:18;;;;;;;9.70;8.75;;;7.60;99.90;;;;;;5089055;28;20580;-77
2022/10/20 00:40:44;;;;;;;9.38;8.48;;;7.60;99.90;;;;;;5082428;28;20171;-77
2022/10/20 00:43:13;;;;;;;8.80;7.97;;;7.50;99.90;;;;;;5080985;28;20681;-76
2022/10/20 00:45:40;;;;;;;10.27;9.23;;;7.40;99.90;;;;;;5078957;28;20210;-76
2022/10/20 00:48:12;;;;;;;9.38;8.45;;;7.40;99.90;;;;;;5096691;28;20198;-77
2022/10/20 00:50:47;;;;;;;9.70;8.90;;;7.30;99.90;;;;;;5086902;28;20604;-77
2022/10/20 00:53:12;;;;;;;10.15;9.15;;;7.30;99.90;;;;;;5097208;28;20176;-77
2022/10/20 00:55:41;;;;;;;11.07;8.70;;;7.20;99.90;;;;;;5085096;28;20285;-78
2022/10/20 00:58:07;;;;;;;10.65;9.63;;;7.20;99.90;;;;;;5088569;28;20170;-77
2022/10/20 01:00:36;;;;;;;10.93;9.70;;;7.20;99.90;;;;;;5086742;28;20174;-77
2022/10/20 01:03:03;;;;;;;11.02;9.68;;;7.20;99.90;;;;;;5088511;28;20198;-77
2022/10/20 01:05:29;;;;;;;9.57;8.68;;;7.10;99.90;;;;;;5090560;28;20190;-77
2022/10/20 01:07:54;;;;;;;10.43;8.43;;;7.10;99.90;;;;;;5091402;28;20202;-78
2022/10/20 01:10:22;;;;;;;10.18;9.15;;;7.10;99.90;;;;;;5089298;28;20174;-77
2022/10/20 01:13:04;;;;;;;12.43;9.23;;;7.00;99.90;;;;;;5098277;28;20170;-77
2022/10/20 01:15:58;;;;;;;10.05;9.00;;;7.00;99.90;;;;;;5092035;28;20195;-78
2022/10/20 01:18:32;;;;;;;10.48;8.80;;;7.00;99.90;;;;;;5092444;28;20653;-78
2022/10/20 01:21:31;;;;;;;10.32;9.27;;;7.00;99.90;;;;;;5091724;28;20197;-77
2022/10/20 01:24:22;;;;;;;10.65;9.60;;;7.00;99.90;;;;;;5089439;28;20665;-78
2022/10/20 01:27:16;;;;;;;9.88;8.50;;;6.90;99.90;;;;;;5082614;28;20190;-78
2022/10/20 01:29:48;;;;;;;11.43;9.52;;;6.90;99.90;;;;;;5095117;28;20699;-78
2022/10/20 01:32:38;;;;;;;10.18;9.18;;;6.90;99.90;;;;;;5098402;28;20553;-78
2022/10/20 01:35:10;;;;;;;10.20;8.43;;;6.90;99.90;;;;;;5084676;28;20232;-78
2022/10/20 01:37:52;;;;;;;12.20;9.13;;;6.90;99.90;;;;;;5091543;28;20637;-78
2022/10/20 01:40:30;;;;;;;9.70;8.90;;;6.90;99.90;;;;;;5088068;28;20594;-78
2022/10/20 01:43:00;;;;;;;10.20;8.02;;;6.90;99.90;;;;;;5097240;28;20175;-79
2022/10/20 01:45:29;;;;;;;10.00;9.00;;;6.80;99.90;;;;;;5105255;28;20207;-78
2022/10/20 01:47:58;;;;;;;10.20;9.30;;;6.80;99.90;;;;;;5094563;28;20236;-79
2022/10/20 01:50:24;;;;;;;10.98;9.85;;;6.80;99.90;;;;;;5098042;28;20250;-78
2022/10/20 01:52:56;;;;;;;10.27;9.32;;;6.80;99.90;;;;;;5098240;28;20215;-78
2022/10/20 01:55:21;;;;;;;9.60;8.75;;;6.70;99.90;;;;;;5093086;28;20227;-78
2022/10/20 01:57:56;;;;;;;11.40;8.65;;;6.70;99.90;;;;;;5086072;28;20629;-78
2022/10/20 02:00:22;;;;;;;10.15;9.13;;;6.70;99.90;;;;;;5087154;28;20200;-78
2022/10/20 02:02:56;;;;;;;11.38;10.02;;;6.80;99.90;;;;;;5092833;28;20636;-78
2022/10/20 02:05:41;;;;;;;8.93;8.10;;;6.80;99.90;;;;;;5092417;28;20202;-77
2022/10/20 02:08:45;;;;;;;9.07;8.27;;;6.80;99.90;;;;;;5085352;28;20614;-78
2022/10/20 02:11:29;;;;;;;9.88;8.98;;;6.80;99.90;;;;;;5084442;28;20179;-77
2022/10/20 02:13:56;;;;;;;9.25;8.35;;;6.80;99.90;;;;;;5081191;28;20536;-77
2022/10/20 02:16:33;;;;;;;11.35;9.13;;;6.90;99.90;;;;;;5090142;28;20267;-78
2022/10/20 02:19:00;;;;;;;10.63;9.43;;;6.90;99.90;;;;;;5089246;28;20206;-78
2022/10/20 02:21:26;;;;;;;12.27;8.75;;;6.90;99.90;;;;;;5102800;28;20235;-78
2022/10/20 02:23:53;;;;;;;8.95;8.05;;;6.80;99.90;;;;;;5103497;28;20178;-78
2022/10/20 02:26:22;;;;;;;9.23;8.48;;;6.70;99.90;;;;;;5093764;28;20708;-78
2022/10/20 02:28:56;;;;;;;10.27;9.10;;;6.70;99.90;;;;;;5094216;28;20277;-78
2022/10/20 02:31:22;;;;;;;12.18;9.48;;;6.70;99.90;;;;;;5092297;28;20181;-78
2022/10/20 02:33:48;;;;;;;11.57;10.15;;;6.60;99.90;;;;;;5092054;28;20567;-78
2022/10/20 02:36:19;;;;;;;12.02;9.40;;;6.50;99.90;;;;;;5089172;28;20637;-78
2022/10/20 02:38:45;;;;;;;12.52;9.70;;;6.40;99.90;;;;;;5087504;28;20181;-78
2022/10/20 02:41:11;;;;;;;10.40;9.48;;;6.40;99.90;;;;;;5087950;28;20261;-78
2022/10/20 02:43:37;;;;;;;10.77;9.68;;;6.30;99.90;;;;;;5085526;28;20710;-78
2022/10/20 02:46:03;;;;;;;11.38;10.25;;;6.30;99.90;;;;;;5088777;28;20202;-78
2022/10/20 02:48:29;;;;;;;11.80;10.55;;;6.20;99.90;;;;;;5091060;28;20205;-78
2022/10/20 02:50:54;;;;;;;12.65;9.82;;;6.30;99.90;;;;;;5083702;28;20172;-78
2022/10/20 02:53:20;;;;;;;11.23;10.07;;;6.30;99.90;;;;;;5090107;28;20187;-78
2022/10/20 02:55:45;;;;;;;10.20;9.30;;;6.30;99.90;;;;;;5090223;28;20611;-77
2022/10/20 02:58:11;;;;;;;12.32;10.18;;;6.30;99.90;;;;;;5087737;28;20182;-77
2022/10/20 03:00:36;;;;;;;10.75;9.65;;;6.40;99.90;;;;;;5090202;28;20231;-77
2022/10/20 03:03:02;;;;;;;11.18;8.82;;;6.40;99.90;;;;;;5087079;28;20185;-77
2022/10/20 03:05:28;;;;;;;13.13;10.05;;;6.40;99.90;;;;;;5077896;28;20198;-78
2022/10/20 03:07:53;;;;;;;12.63;9.73;;;6.40;99.90;;;;;;5081570;28;20677;-77
2022/10/20 03:10:19;;;;;;;11.45;9.25;;;6.40;99.90;;;;;;5088053;28;20178;-77
2022/10/20 03:12:45;;;;;;;10.73;9.63;;;6.40;99.90;;;;;;5085341;28;20182;-77
2022/10/20 03:15:10;;;;;;;10.00;9.10;;;6.40;99.90;;;;;;5079341;28;20214;-77
2022/10/20 03:17:36;;;;;;;10.77;9.05;;;6.40;99.90;;;;;;5087679;28;20180;-77
2022/10/20 03:20:03;;;;;;;11.32;9.48;;;6.40;99.90;;;;;;5079933;28;20190;-77
2022/10/20 03:22:29;;;;;;;10.55;9.45;;;6.30;99.90;;;;;;5087838;28;20188;-77
2022/10/20 03:24:54;;;;;;;10.70;8.98;;;6.30;99.90;;;;;;5084127;28;20273;-77
2022/10/20 03:27:20;;;;;;;10.98;9.93;;;6.40;99.90;;;;;;5084113;28;20175;-77
2022/10/20 03:29:46;;;;;;;9.63;8.73;;;6.40;99.90;;;;;;5086266;28;20202;-78
2022/10/20 03:32:12;;;;;;;11.10;10.02;;;6.40;99.90;;;;;;5084140;28;20228;-78
2022/10/20 03:34:38;;;;;;;10.93;9.38;;;6.50;99.90;;;;;;5085982;28;20186;-77
2022/10/20 03:37:03;;;;;;;9.98;9.07;;;6.40;99.90;;;;;;5087095;28;20227;-77
2022/10/20 03:39:29;;;;;;;12.65;10.80;;;6.50;99.90;;;;;;5085500;28;20668;-78
2022/10/20 03:41:56;;;;;;;9.80;8.93;;;6.40;99.90;;;;;;5082070;28;20379;-78
2022/10/20 03:44:22;;;;;;;12.80;9.45;;;6.40;99.90;;;;;;5082053;28;20234;-78
2022/10/20 03:46:48;;;;;;;13.65;8.95;;;6.40;99.90;;;;;;5077264;28;20202;-78
2022/10/20 03:49:13;;;;;;;9.98;8.88;;;6.40;99.90;;;;;;5082473;28;20218;-79
2022/10/20 03:51:39;;;;;;;10.00;8.80;;;6.30;99.90;;;;;;5083290;28;20187;-77
2022/10/20 03:54:05;;;;;;;11.95;9.88;;;6.30;99.90;;;;;;5088981;28;20194;-77
2022/10/20 03:56:30;;;;;;;9.80;8.10;;;6.30;99.90;;;;;;5087952;28;20177;-77
2022/10/20 03:58:56;;;;;;;9.77;8.90;;;6.40;99.90;;;;;;5081549;28;20190;-77
2022/10/20 04:01:27;;;;;;;11.02;9.77;;;6.40;99.90;;;;;;5092763;28;20558;-77
2022/10/20 04:03:53;;;;;;;12.48;9.55;;;6.30;99.90;;;;;;5086514;28;20175;-77
2022/10/20 04:06:18;;;;;;;11.10;9.95;;;6.20;99.90;;;;;;5086066;28;20265;-77
2022/10/20 04:08:44;;;;;;;11.02;9.90;;;6.10;99.90;;;;;;5085267;28;20684;-77
2022/10/20 04:11:09;;;;;;;11.75;9.63;;;6.00;99.90;;;;;;5082725;28;20481;-77
2022/10/20 04:13:35;;;;;;;12.32;10.52;;;6.00;99.90;;;;;;5086737;28;20186;-77
2022/10/20 04:16:01;;;;;;;9.75;8.75;;;5.90;99.90;;;;;;5091193;28;20665;-77
2022/10/20 04:18:26;;;;;;;10.93;9.82;;;5.90;99.90;;;;;;5092695;28;20648;-77
2022/10/20 04:20:52;;;;;;;10.77;9.77;;;5.80;99.90;;;;;;5088076;28;20264;-77
2022/10/20 04:23:17;;;;;;;12.20;10.80;;;5.90;99.90;;;;;;5087761;28;20651;-77
2022/10/20 04:25:47;;;;;;;14.43;10.20;;;5.80;99.90;;;;;;5089419;28;20251;-77
2022/10/20 04:28:17;;;;;;;11.25;10.07;;;5.80;99.90;;;;;;5089505;28;20217;-77
2022/10/20 04:30:44;;;;;;;11.07;9.98;;;5.80;99.90;;;;;;5086051;28;20242;-77
2022/10/20 04:33:10;;;;;;;12.15;10.50;;;5.80;99.90;;;;;;5090941;28;20174;-78
2022/10/20 04:35:36;;;;;;;12.77;9.52;;;5.80;99.90;;;;;;5097000;28;20208;-77
2022/10/20 04:38:01;;;;;;;11.25;10.07;;;5.80;99.90;;;;;;5091867;28;20182;-77
2022/10/20 04:40:27;;;;;;;10.35;9.35;;;5.90;99.90;;;;;;5079380;28;20197;-77
2022/10/20 04:42:53;;;;;;;9.95;8.90;;;6.00;99.90;;;;;;5090051;28;20183;-77
2022/10/20 04:45:18;;;;;;;11.00;9.90;;;6.10;99.90;;;;;;5087608;28;20218;-78
2022/10/20 04:47:44;;;;;;;12.02;9.90;;;6.00;99.90;;;;;;5088584;28;20190;-78
2022/10/20 04:50:09;;;;;;;10.77;9.77;;;6.00;99.90;;;;;;5092924;28;20174;-79
2022/10/20 04:52:35;;;;;;;11.57;9.90;;;6.00;99.90;;;;;;5088459;28;20209;-78
2022/10/20 04:55:00;;;;;;;11.40;10.30;;;6.00;99.90;;;;;;5100200;28;20305;-78
2022/10/20 04:57:26;;;;;;;13.95;10.65;;;5.90;99.90;;;;;;5096709;28;20179;-78
2022/10/20 04:59:52;;;;;;;12.48;11.25;;;5.90;99.90;;;;;;5095244;28;20651;-78
2022/10/20 05:02:17;;;;;;;11.77;10.57;;;5.90;99.90;;;;;;5096132;28;20186;-78
2022/10/20 05:04:43;;;;;;;11.13;9.45;;;5.80;99.90;;;;;;5097524;28;20202;-78
2022/10/20 05:07:09;;;;;;;11.88;10.77;;;5.70;99.90;;;;;;5090423;28;20171;-78
2022/10/20 05:09:34;;;;;;;12.18;10.35;;;5.70;99.90;;;;;;5092819;28;20301;-78
2022/10/20 05:12:00;;;;;;;16.15;11.88;;;5.70;99.90;;;;;;5092746;28;20171;-78
2022/10/20 05:14:26;;;;;;;12.60;10.88;;;5.70;99.90;;;;;;5084834;28;20217;-77
2022/10/20 05:16:51;;;;;;;13.65;11.25;;;5.70;99.90;;;;;;5092123;28;20217;-78
2022/10/20 05:19:17;;;;;;;14.60;11.15;;;5.60;99.90;;;;;;5090365;28;20183;-78
2022/10/20 05:21:43;;;;;;;12.93;10.48;;;5.60;99.90;;;;;;5086700;28;20593;-79
2022/10/20 05:24:13;;;;;;;12.90;11.05;;;5.60;99.90;;;;;;5083621;28;20199;-78
2022/10/20 05:26:39;;;;;;;11.40;10.32;;;5.50;99.90;;;;;;5081001;28;20657;-79
2022/10/20 05:29:07;;;;;;;14.73;11.32;;;5.60;99.90;;;;;;5083313;28;20332;-78
2022/10/20 05:31:51;;;;;;;14.35;10.98;;;5.50;99.90;;;;;;5088166;28;20170;-78
2022/10/20 05:34:16;;;;;;;13.00;10.98;;;5.50;99.90;;;;;;5084355;28;20198;-78
2022/10/20 05:36:42;;;;;;;11.63;10.40;;;5.50;99.90;;;;;;5083947;28;20219;-78
2022/10/20 05:39:09;;;;;;;16.02;11.82;;;5.40;99.90;;;;;;5088724;28;20198;-78
2022/10/20 05:41:36;;;;;;;15.10;11.73;;;5.40;99.90;;;;;;5104191;27;20186;-77
2022/10/20 05:44:03;;;;;;;17.75;13.35;;;5.40;99.90;;;;;;5090490;28;20207;-80
2022/10/20 05:46:32;;;;;;;20.30;13.00;;;5.50;99.90;;;;;;5093184;28;20186;-79
2022/10/20 05:49:01;;;;;;;15.88;13.43;;;5.50;99.90;;;;;;5083334;28;20203;-78
2022/10/20 05:51:33;;;;;;;14.77;13.35;;;5.60;99.90;;;;;;5089119;28;20645;-78
2022/10/20 05:53:59;;;;;;;16.20;12.95;;;5.60;99.90;;;;;;5096834;28;20238;-78
2022/10/20 05:56:26;;;;;;;14.57;13.07;;;5.60;99.90;;;;;;5096174;28;20225;-78
2022/10/20 05:58:53;;;;;;;15.85;13.18;;;5.70;99.90;;;;;;5088994;28;20174;-77
2022/10/20 06:01:22;;;;;;;13.13;11.82;;;5.70;99.90;;;;;;5087338;28;20277;-76
2022/10/20 06:03:55;;;;;;;14.20;12.10;;;5.70;99.90;;;;;;5082774;28;20773;-77
2022/10/20 06:06:24;;;;;;;13.40;12.00;;;5.70;99.90;;;;;;5081177;28;20867;-74
2022/10/20 06:08:50;;;;;;;13.80;12.40;;;5.70;99.90;;;;;;5082590;28;20294;-78
2022/10/20 06:11:16;;;;;;;13.88;11.02;;;5.70;99.90;;;;;;5084090;28;20186;-77
2022/10/20 06:13:42;;;;;;;13.50;12.13;;;5.70;99.90;;;;;;5086546;28;20667;-77
2022/10/20 06:16:11;;;;;;;13.07;11.75;;;5.70;99.90;;;;;;5086723;28;20179;-77
2022/10/20 06:18:41;;;;;;;12.35;11.10;;;5.70;99.90;;;;;;5091737;28;20763;-77
2022/10/20 06:21:13;;;;;;;13.30;11.88;;;5.80;99.90;;;;;;5083085;28;20551;-78
2022/10/20 06:23:39;;;;;;;13.77;10.48;;;5.80;99.90;;;;;;5093628;28;20198;-80
2022/10/20 06:26:07;;;;;;;11.88;10.77;;;5.80;99.90;;;;;;5073327;28;20187;-79
2022/10/20 06:28:35;;;;;;;12.27;10.88;;;5.90;99.90;;;;;;5084812;28;20695;-78
2022/10/20 06:31:10;;;;;;;12.75;10.60;;;6.00;99.90;;;;;;5081468;28;20189;-78
2022/10/20 06:33:35;;;;;;;12.15;10.85;;;6.00;99.90;;;;;;5088515;28;20178;-78
2022/10/20 06:36:01;;;;;;;15.55;10.07;;;6.20;99.90;;;;;;5093499;28;20332;-77
2022/10/20 06:38:27;;;;;;;14.70;11.60;;;6.20;99.90;;;;;;5080698;28;20179;-74
2022/10/20 06:40:53;;;;;;;11.00;9.88;;;6.30;99.90;;;;;;5092042;28;20181;-77
2022/10/20 06:43:19;;;;;;;12.35;10.90;;;6.40;99.90;;;;;;5084885;28;20555;-77
2022/10/20 06:45:53;;;;;;;10.40;9.40;;;6.50;99.90;;;;;;5100442;28;20255;-77
2022/10/20 06:48:19;;;;;;;12.68;9.43;;;6.50;99.90;;;;;;5093218;28;20564;-77
2022/10/20 06:50:45;;;;;;;11.25;10.15;;;6.70;99.90;;;;;;5087578;28;20175;-77
2022/10/20 06:53:11;;;;;;;9.82;8.68;;;6.80;99.90;;;;;;5085860;28;20170;-77
2022/10/20 06:55:36;;;;;;;11.57;10.38;;;7.00;99.90;;;;;;5088097;28;20202;-77
2022/10/20 06:58:02;;;;;;;14.77;9.80;;;7.10;99.90;;;;;;5086320;28;20274;-77
2022/10/20 07:00:27;;;;;;;11.00;9.90;;;7.10;99.90;;;;;;5083451;28;20186;-77
2022/10/20 07:02:53;;;;;;;10.52;8.88;;;7.20;99.90;;;;;;5088769;28;20186;-78
2022/10/20 07:05:20;;;;;;;11.48;9.52;;;7.20;99.90;;;;;;5082327;28;20202;-76
2022/10/20 07:07:46;;;;;;;10.00;8.73;;;7.30;99.90;;;;;;5087792;28;20224;-75
2022/10/20 07:10:11;;;;;;;11.05;9.57;;;7.30;99.90;;;;;;5084182;28;20631;-76
2022/10/20 07:12:37;;;;;;;11.40;9.90;;;7.40;99.90;;;;;;5091771;28;20170;-76
2022/10/20 07:15:03;;;;;;;10.88;9.85;;;7.40;99.90;;;;;;5081825;28;20202;-77
2022/10/20 07:17:29;;;;;;;11.95;10.10;;;7.40;99.90;;;;;;5087604;28;20174;-77
2022/10/20 07:19:54;;;;;;;18.65;9.98;;;7.50;99.90;;;;;;5088220;28;20173;-76
2022/10/20 07:22:20;;;;;;;10.43;9.40;;;7.50;99.90;;;;;;5079536;28;20183;-75
2022/10/20 07:24:46;;;;;;;10.38;9.48;;;7.60;99.90;;;;;;5079654;28;20248;-76
2022/10/20 07:27:11;;;;;;;11.65;10.60;;;7.60;99.90;;;;;;5084389;28;20183;-76
2022/10/20 07:29:37;;;;;;;12.00;10.07;;;7.70;99.90;;;;;;5089822;28;20280;-76
2022/10/20 07:32:03;;;;;;;12.27;10.63;;;7.70;99.90;;;;;;5085282;28;20232;-76
2022/10/20 07:34:28;;;;;;;11.35;10.30;;;7.80;99.90;;;;;;5083600;28;20216;-75
2022/10/20 07:36:55;;;;;;;14.40;10.18;;;7.90;99.90;;;;;;5085616;28;20182;-76
2022/10/20 07:39:21;;;;;;;11.15;9.73;;;8.00;99.90;;;;;;5085675;28;20178;-76
2022/10/20 07:41:46;;;;;;;14.63;9.73;;;8.10;99.90;;;;;;5081621;28;20190;-74
2022/10/20 07:44:13;;;;;;;10.30;9.30;;;8.20;99.90;;;;;;5091621;28;20208;-79
2022/10/20 07:46:38;;;;;;;15.95;10.07;;;8.30;99.90;;;;;;5082351;28;20715;-75
2022/10/20 07:49:04;;;;;;;13.88;9.23;;;8.40;99.90;;;;;;5082910;28;20199;-74
2022/10/20 07:51:31;;;;;;;11.02;9.45;;;8.50;99.90;;;;;;5090728;28;20197;-75
2022/10/20 07:54:06;;;;;;;12.15;9.20;;;8.60;99.90;;;;;;5082287;28;20197;-74
2022/10/20 07:56:36;;;;;;;10.52;9.48;;;8.80;99.90;;;;;;5068198;28;20182;-77
2022/10/20 07:59:03;;;;;;;9.50;8.48;;;8.90;99.90;;;;;;5072245;28;20281;-74
2022/10/20 08:01:29;;;;;;;9.07;8.25;;;9.10;99.90;;;;;;5083337;28;20182;-78
2022/10/20 08:03:54;;;;;;;10.50;9.45;;;9.20;99.90;;;;;;5087343;28;20206;-73
2022/10/20 08:06:20;;;;;;;9.05;7.95;;;9.30;99.90;;;;;;5088804;28;20183;-75
2022/10/20 08:08:46;;;;;;;11.75;8.38;;;9.40;99.90;;;;;;5084725;28;20205;-74
2022/10/20 08:11:12;;;;;;;9.68;8.77;;;9.60;99.90;;;;;;5084661;28;20174;-75
2022/10/20 08:13:39;;;;;;;8.70;7.90;;;9.70;99.90;;;;;;5083714;28;20185;-80
2022/10/20 08:16:06;;;;;;;8.95;7.53;;;10.20;99.90;;;;;;5085694;28;20163;-76
2022/10/20 08:18:32;;;;;;;8.43;7.72;;;10.70;99.90;;;;;;5086576;28;20190;-75
2022/10/20 08:21:26;;;;;;;8.38;7.57;;;10.70;99.90;;;;;;5081875;28;20661;-76
2022/10/20 08:23:52;;;;;;;8.68;7.88;;;10.60;99.90;;;;;;5081773;28;20193;-75
2022/10/20 08:26:20;;;;;;;10.35;7.45;;;10.60;99.90;;;;;;5080013;28;20183;-75
2022/10/20 08:28:47;;;;;;;7.47;6.72;;;10.50;99.90;;;;;;5084712;28;20569;-75
2022/10/20 08:31:13;;;;;;;7.82;7.07;;;10.60;99.90;;;;;;5087171;28;20186;-74
2022/10/20 08:33:39;;;;;;;8.43;6.90;;;10.70;99.90;;;;;;5092164;28;20218;-75
2022/10/20 08:36:11;;;;;;;7.07;6.47;;;10.70;99.90;;;;;;5086487;28;20182;-75
2022/10/20 08:38:37;;;;;;;8.18;6.85;;;11.00;99.90;;;;;;5083290;28;20174;-75
2022/10/20 08:41:13;;;;;;;6.60;6.00;;;11.50;99.90;;;;;;5090800;28;20317;-75
2022/10/20 08:43:40;;;;;;;7.10;6.50;;;11.60;99.90;;;;;;5088461;28;20177;-76
2022/10/20 08:46:14;;;;;;;7.15;6.45;;;11.60;99.90;;;;;;5092007;28;20605;-75
2022/10/20 08:48:41;;;;;;;7.68;6.88;;;11.60;99.90;;;;;;5090989;28;20279;-75
2022/10/20 08:51:15;;;;;;;7.05;6.22;;;11.80;99.90;;;;;;5081638;28;20171;-75
2022/10/20 08:53:40;;;;;;;7.03;6.43;;;12.00;99.90;;;;;;5085906;28;20175;-75
2022/10/20 08:56:12;;;;;;;6.68;5.97;;;12.10;99.90;;;;;;5087078;28;20181;-75
2022/10/20 08:58:41;;;;;;;7.45;5.82;;;12.30;99.90;;;;;;5093063;28;20178;-75
2022/10/20 09:01:18;;;;;;;7.72;5.97;;;12.30;99.90;;;;;;5085992;28;20713;-75
2022/10/20 09:03:44;;;;;;;6.28;5.78;;;12.60;99.90;;;;;;5083829;28;20179;-75
2022/10/20 09:06:15;;;;;;;5.93;5.43;;;12.90;99.90;;;;;;5093286;28;20182;-75
2022/10/20 09:08:42;;;;;;;5.28;4.75;;;13.60;99.90;;;;;;5082841;28;20207;-75
2022/10/20 09:11:22;;;;;;;5.13;4.65;;;14.20;99.90;;;;;;5085845;28;20193;-75
2022/10/20 09:13:48;;;;;;;8.07;5.28;;;15.30;99.90;;;;;;5090825;28;20197;-76
2022/10/20 09:16:22;;;;;;;4.18;3.95;;;16.90;99.90;;;;;;5088872;28;20191;-76
2022/10/20 09:18:55;;;;;;;4.10;3.83;;;18.60;99.90;;;;;;5086869;28;20224;-75
2022/10/20 09:21:21;;;;;;;3.92;3.53;;;20.40;95.50;;;;;;5085209;28;20195;-75
2022/10/20 09:23:54;;;;;;;3.40;3.20;;;21.70;91.00;;;;;;5090026;28;20212;-74
2022/10/20 09:26:34;;;;;;;4.57;3.60;;;22.90;82.00;;;;;;5090545;28;20190;-78
2022/10/20 09:29:19;;;;;;;3.60;3.40;;;23.80;75.10;;;;;;5092188;28;20605;-75
2022/10/20 09:31:54;;;;;;;3.70;3.40;;;24.50;71.90;;;;;;5081583;28;20220;-75
2022/10/20 09:34:24;;;;;;;3.60;3.40;;;24.80;69.20;;;;;;5095261;28;20195;-76
2022/10/20 09:36:56;;;;;;;3.85;3.38;;;26.00;65.90;;;;;;5091060;28;20166;-76
2022/10/20 09:39:26;;;;;;;6.65;3.90;;;26.50;62.60;;;;;;5092538;28;20218;-75
2022/10/20 09:42:03;;;;;;;4.03;3.58;;;26.60;59.80;;;;;;5092829;28;20175;-77
2022/10/20 09:44:32;;;;;;;4.20;3.80;;;27.20;59.40;;;;;;5098400;28;20211;-75
2022/10/20 09:46:59;;;;;;;7.60;4.40;;;27.80;57.50;;;;;;5093530;28;20171;-73
2022/10/20 09:49:36;;;;;;;4.15;3.75;;;28.00;56.30;;;;;;5088766;28;20241;-73
2022/10/20 09:52:12;;;;;;;4.13;3.72;;;28.30;54.70;;;;;;5091688;28;20186;-73
2022/10/20 09:54:38;;;;;;;3.53;3.22;;;28.20;54.50;;;;;;5085293;28;20290;-73
2022/10/20 09:57:13;;;;;;;3.92;3.35;;;28.70;54.50;;;;;;5093533;28;20212;-73
2022/10/20 09:59:43;;;;;;;3.50;3.08;;;29.30;52.60;;;;;;5090451;28;20173;-73
2022/10/20 10:02:14;;;;;;;3.22;3.03;;;29.50;52.00;;;;;;5093202;28;20257;-73
2022/10/20 10:04:43;;;;;;;3.50;3.20;;;29.80;51.60;;;;;;5099192;28;20198;-74
2022/10/20 10:07:20;;;;;;;3.58;3.22;;;30.30;50.90;;;;;;5089656;28;20203;-76
2022/10/20 10:09:59;;;;;;;3.22;3.03;;;30.80;49.80;;;;;;5088852;28;20198;-74
2022/10/20 10:12:27;;;;;;;5.88;3.28;;;30.80;48.80;;;;;;5092767;28;20178;-74
2022/10/20 10:14:54;;;;;;;4.25;3.10;;;30.70;49.40;;;;;;5085351;27;20190;-74
2022/10/20 10:17:39;;;;;;;3.47;3.13;;;30.90;49.40;;;;;;5095975;28;20185;-74
2022/10/20 10:20:10;;;;;;;4.05;3.70;;;31.40;48.30;;;;;;5093090;28;20182;-74
2022/10/20 10:22:37;;;;;;;5.72;3.40;;;31.80;47.40;;;;;;5084792;28;20227;-74
2022/10/20 10:25:04;;;;;;;4.70;3.58;;;32.00;46.80;;;;;;5093497;28;20221;-74
2022/10/20 10:27:33;;;;;;;3.55;3.30;;;32.20;46.40;;;;;;5089812;28;20178;-74
2022/10/20 10:30:26;;;;;;;3.55;3.25;;;32.40;46.00;;;;;;5090347;28;20739;-74
2022/10/20 10:32:52;;;;;;;3.78;3.22;;;33.00;45.80;;;;;;5086256;28;20282;-73
2022/10/20 10:35:41;;;;;;;2.83;2.72;;;33.30;45.30;;;;;;5095407;28;20193;-74
2022/10/20 10:38:10;;;;;;;2.90;2.70;;;33.20;43.90;;;;;;5088723;28;20206;-74
2022/10/20 10:40:46;;;;;;;2.83;2.63;;;33.60;43.50;;;;;;5100994;27;20227;-74
2022/10/20 10:43:30;;;;;;;4.53;2.58;;;34.00;43.20;;;;;;5087233;28;20232;-74
2022/10/20 10:46:10;;;;;;;2.75;2.55;;;34.30;42.40;;;;;;5090049;28;20210;-74
2022/10/20 10:49:16;;;;;;;2.60;2.40;;;34.70;42.00;;;;;;5084551;28;20214;-74
2022/10/20 10:52:19;;;;;;;2.80;2.50;;;33.80;42.50;;;;;;5083706;28;20286;-74
2022/10/20 10:55:12;;;;;;;2.90;2.50;;;32.70;43.00;;;;;;5099508;28;20565;-74
2022/10/20 10:57:49;;;;;;;2.78;2.58;;;32.00;44.30;;;;;;5085633;28;20177;-74
2022/10/20 11:00:34;;;;;;;2.70;2.58;;;32.20;43.90;;;;;;5101475;28;20254;-74
2022/10/20 11:03:03;;;;;;;3.90;2.80;;;33.10;43.90;;;;;;5090744;28;20193;-75
2022/10/20 11:05:37;;;;;;;3.03;2.75;;;34.50;42.40;;;;;;5093244;28;21044;-74
2022/10/20 11:08:29;;;;;;;5.25;3.17;;;35.30;41.30;;;;;;5087212;28;20180;-74
2022/10/20 11:11:15;;;;;;;2.60;2.40;;;35.70;40.20;;;;;;5088538;28;20171;-74
2022/10/20 11:13:41;;;;;;;4.55;2.97;;;35.80;40.30;;;;;;5088675;28;20178;-74
2022/10/20 11:16:37;;;;;;;3.63;2.53;;;35.50;40.50;;;;;;5091437;28;20237;-75
2022/10/20 11:19:21;;;;;;;2.60;2.50;;;33.90;41.70;;;;;;5089626;28;20182;-74
2022/10/20 11:22:07;;;;;;;2.45;2.33;;;33.70;42.70;;;;;;5084249;28;20204;-74
2022/10/20 11:25:16;;;;;;;2.78;2.58;;;34.40;41.10;;;;;;5087222;28;20247;-74
2022/10/20 11:27:42;;;;;;;4.10;2.63;;;34.40;41.10;;;;;;5065052;28;20186;-74
2022/10/20 11:30:18;;;;;;;2.95;2.75;;;33.40;41.90;;;;;;5064282;28;20214;-74
2022/10/20 11:32:58;;;;;;;2.75;2.55;;;32.50;42.70;;;;;;5073672;28;20193;-74
2022/10/20 11:35:41;;;;;;;4.70;2.22;;;32.10;43.80;;;;;;5095146;28;20228;-74
2022/10/20 11:38:20;;;;;;;3.17;2.50;;;32.80;43.70;;;;;;5086468;28;20748;-74
2022/10/20 11:41:16;;;;;;;3.30;2.58;;;33.40;42.70;;;;;;5093811;28;20173;-74
2022/10/20 11:44:06;;;;;;;2.80;2.60;;;33.80;42.20;;;;;;5082632;28;20194;-74
2022/10/20 11:46:31;;;;;;;2.75;2.58;;;34.20;41.70;;;;;;5090129;28;20233;-74
2022/10/20 11:48:57;;;;;;;2.72;1.95;;;34.70;40.70;;;;;;5092292;28;20198;-74
2022/10/20 11:51:28;;;;;;;2.40;2.20;;;35.10;40.90;;;;;;5086552;28;20178;-74
2022/10/20 11:54:03;;;;;;;2.10;2.00;;;35.50;40.10;;;;;;5094529;28;20179;-74
2022/10/20 11:56:47;;;;;;;3.40;2.30;;;35.60;40.20;;;;;;5096842;28;20670;-74
2022/10/20 11:59:13;;;;;;;2.80;2.33;;;36.20;39.70;;;;;;5093768;28;20181;-74
2022/10/20 12:02:03;;;;;;;2.38;2.17;;;36.50;39.50;;;;;;5090665;28;20185;-74
2022/10/20 12:04:56;;;;;;;2.13;1.92;;;36.20;39.30;;;;;;5085533;28;20277;-74
2022/10/20 12:07:48;;;;;;;6.80;2.70;;;35.00;40.40;;;;;;5085749;28;20207;-74
2022/10/20 12:10:31;;;;;;;2.60;2.40;;;34.10;40.70;;;;;;5087113;28;20182;-74
2022/10/20 12:13:15;;;;;;;2.50;2.40;;;32.50;42.40;;;;;;5089448;28;20562;-74
2022/10/20 12:15:47;;;;;;;3.63;2.25;;;31.90;43.70;;;;;;5083467;28;20232;-74
2022/10/20 12:18:25;;;;;;;3.97;2.30;;;31.80;44.10;;;;;;5095170;28;20545;-74
2022/10/20 12:20:55;;;;;;;2.30;2.10;;;32.20;43.80;;;;;;5083816;28;20182;-74
2022/10/20 12:23:45;;;;;;;5.00;2.53;;;32.70;44.20;;;;;;5092392;28;20693;-74
2022/10/20 12:26:36;;;;;;;2.90;2.70;;;32.40;43.60;;;;;;5084868;28;20177;-74
2022/10/20 12:29:30;;;;;;;2.65;2.53;;;31.50;45.00;;;;;;5091853;28;20316;-72
2022/10/20 12:32:24;;;;;;;2.75;2.10;;;30.90;45.30;;;;;;5083055;28;20209;-73
2022/10/20 12:34:52;;;;;;;3.10;2.80;;;30.30;45.90;;;;;;5088192;28;20194;-74
2022/10/20 12:37:23;;;;;;;4.13;2.40;;;29.70;46.90;;;;;;5083902;28;20227;-74
2022/10/20 12:39:51;;;;;;;3.78;2.55;;;28.90;48.00;;;;;;5086835;28;20220;-74
2022/10/20 12:42:25;;;;;;;2.50;2.30;;;27.40;49.90;;;;;;5084427;28;20196;-74
2022/10/20 12:44:52;;;;;;;2.58;2.42;;;26.40;52.30;;;;;;5088054;28;20214;-74
2022/10/20 12:47:25;;;;;;;2.78;2.55;;;26.00;53.10;;;;;;5091358;28;20194;-74
2022/10/20 12:50:25;;;;;;;2.80;2.60;;;25.70;53.70;;;;;;5087857;28;20201;-73
2022/10/20 12:52:51;;;;;;;2.88;2.67;;;25.20;54.10;;;;;;5089802;28;20205;-74
2022/10/20 12:55:35;;;;;;;2.42;2.30;;;24.50;54.80;;;;;;5093581;28;20220;-73
2022/10/20 12:58:17;;;;;;;4.07;2.05;;;23.70;56.30;;;;;;5086621;28;20179;-73
2022/10/20 13:00:45;;;;;;;2.25;2.15;;;23.60;57.40;;;;;;5087254;28;20174;-73
2022/10/20 13:03:30;;;;;;;4.40;2.40;;;23.60;57.90;;;;;;5090305;28;20271;-74
2022/10/20 13:05:57;;;;;;;4.13;2.65;;;23.60;57.40;;;;;;5093272;28;20606;-74